createdAt,value
2019-01-21T00:00:58.182Z,78.46
2019-01-21T00:06:32.801Z,78.62
2019-01-21T00:11:50.728Z,77.96
2019-01-21T00:17:08.628Z,77.26
2019-01-21T00:22:26.154Z,76.71
2019-01-21T00:27:43.906Z,76.73
2019-01-21T00:33:01.095Z,76.44
2019-01-21T00:38:18.679Z,75.89
2019-01-21T00:43:36.328Z,75.62
2019-01-21T00:48:54.570Z,76.43
2019-01-21T00:54:11.584Z,76.48
2019-01-21T00:59:29.209Z,76.44
2019-01-21T01:04:46.443Z,76.77
2019-01-21T01:10:04.529Z,77.02
2019-01-21T01:15:22.904Z,77.04
2019-01-21T01:20:47.138Z,77.34
2019-01-21T01:26:04.242Z,77.92
2019-01-21T01:31:22.340Z,78.03
2019-01-21T01:36:39.332Z,77.86
2019-01-21T01:41:57.307Z,78.31
2019-01-21T01:47:14.530Z,78.06
2019-01-21T01:52:32.670Z,78.65
2019-01-21T01:57:49.758Z,79.14
2019-01-21T02:03:07.245Z,79.17
2019-01-21T02:08:24.789Z,79.81
2019-01-21T02:13:42.011Z,79.76
2019-01-21T02:18:59.375Z,80.00
2019-01-21T02:24:16.543Z,80.27
2019-01-21T02:29:48.111Z,80.25
2019-01-21T02:35:21.660Z,80.63
2019-01-21T02:40:57.366Z,81.05
2019-01-21T02:46:52.876Z,81.28
2019-01-21T02:52:21.695Z,81.91
2019-01-21T02:57:45.262Z,81.77
2019-01-21T03:03:10.437Z,81.82
2019-01-21T03:09:05.487Z,82.23
2019-01-21T03:14:40.929Z,82.00
2019-01-21T03:20:02.718Z,82.52
2019-01-21T03:25:45.751Z,82.57
2019-01-21T03:31:22.696Z,82.55
2019-01-21T03:36:55.347Z,82.54
2019-01-21T03:42:44.990Z,82.51
2019-01-21T03:48:28.544Z,82.35
2019-01-21T03:53:58.921Z,82.49
2019-01-21T03:59:21.255Z,82.71
2019-01-21T04:04:49.181Z,82.61
2019-01-21T04:10:28.966Z,82.18
2019-01-21T04:15:55.835Z,82.29
2019-01-21T04:21:21.599Z,82.46
2019-01-21T04:27:04.890Z,82.56
2019-01-21T04:32:33.921Z,82.98
2019-01-21T04:38:14.754Z,82.92
2019-01-21T04:43:57.371Z,83.01
2019-01-21T04:49:25.808Z,82.88
2019-01-21T04:55:02.402Z,82.91
2019-01-21T05:00:38.213Z,82.91
2019-01-21T05:06:02.664Z,82.75
2019-01-21T05:11:28.248Z,82.57
2019-01-21T05:17:03.783Z,82.29
2019-01-21T05:22:49.620Z,81.94
2019-01-21T05:28:26.613Z,81.53
2019-01-21T05:34:03.243Z,81.36
2019-01-21T05:39:48.842Z,81.87
2019-01-21T05:45:31.714Z,81.92
2019-01-21T05:51:07.041Z,82.07
2019-01-21T05:56:47.170Z,82.48
2019-01-21T06:02:22.671Z,82.33
2019-01-21T06:08:08.921Z,82.24
2019-01-21T06:13:37.242Z,81.98
2019-01-21T06:19:26.019Z,81.79
2019-01-21T06:25:05.417Z,81.41
2019-01-21T06:30:51.594Z,81.27
2019-01-21T06:36:33.640Z,82.00
2019-01-21T06:41:58.382Z,81.54
2019-01-21T06:47:40.885Z,81.24
2019-01-21T06:53:12.849Z,80.98
2019-01-21T06:58:55.635Z,81.22
2019-01-21T07:04:41.952Z,81.50
2019-01-21T07:10:18.698Z,81.43
2019-01-21T07:15:54.962Z,81.57
2019-01-21T07:21:29.468Z,81.57
2019-01-21T07:27:05.514Z,81.92
2019-01-21T07:32:39.358Z,81.84
2019-01-21T07:38:28.503Z,82.00
2019-01-21T07:44:03.706Z,81.69
2019-01-21T07:49:39.649Z,82.21
2019-01-21T07:55:02.022Z,81.22
2019-01-21T08:00:38.373Z,80.79
2019-01-21T08:06:13.906Z,80.96
2019-01-21T08:12:08.654Z,80.86
2019-01-21T08:17:44.584Z,79.22
2019-01-21T08:23:36.003Z,79.27
2019-01-21T08:29:19.020Z,79.16
2019-01-21T08:34:47.095Z,77.32
2019-01-21T08:40:25.846Z,77.61
2019-01-21T08:46:05.731Z,76.39
2019-01-21T08:51:42.098Z,77.97
2019-01-21T08:57:09.812Z,77.47
2019-01-21T09:02:31.575Z,75.68
2019-01-21T09:08:07.475Z,75.29
2019-01-21T09:13:50.753Z,74.99
2019-01-21T09:19:16.941Z,74.71
2019-01-21T09:24:48.486Z,74.35
2019-01-21T09:30:31.441Z,74.13
2019-01-21T09:36:14.055Z,73.50
2019-01-21T09:41:56.640Z,72.22
2019-01-21T09:47:13.347Z,71.95
2019-01-21T09:52:30.790Z,71.46
2019-01-21T09:57:49.206Z,69.68
2019-01-21T10:03:07.819Z,71.12
2019-01-21T10:09:03.670Z,70.57
2019-01-21T10:14:39.820Z,69.13
2019-01-21T10:20:15.554Z,68.64
2019-01-21T10:25:52.901Z,67.02
2019-01-21T10:31:28.123Z,66.58
2019-01-21T10:37:04.832Z,64.79
2019-01-21T10:42:45.637Z,64.40
2019-01-21T10:48:12.199Z,61.83
2019-01-21T10:53:48.115Z,65.53
2019-01-21T10:59:24.900Z,61.53
2019-01-21T11:05:01.276Z,57.41
2019-01-21T11:10:44.642Z,49.48
2019-01-21T11:16:07.549Z,51.59
2019-01-21T11:21:36.981Z,50.56
2019-01-21T11:27:01.016Z,49.61
2019-01-21T11:32:50.136Z,46.20
2019-01-21T11:38:38.929Z,45.49
2019-01-21T11:44:02.205Z,45.10
2019-01-21T11:49:29.854Z,45.76
2019-01-21T11:55:13.378Z,51.60
2019-01-21T12:00:35.044Z,53.22
2019-01-21T12:05:58.417Z,53.21
2019-01-21T12:11:18.795Z,54.06
2019-01-21T12:16:43.982Z,51.68
2019-01-21T12:22:11.805Z,51.61
2019-01-21T12:28:10.698Z,50.92
2019-01-21T12:34:06.850Z,50.66
2019-01-21T12:39:42.750Z,48.16
2019-01-21T12:45:17.201Z,50.87
2019-01-21T12:50:57.644Z,52.64
2019-01-21T12:56:35.427Z,51.96
2019-01-21T13:08:42.157Z,52.37
2019-01-21T13:14:07.301Z,52.18
2019-01-21T13:19:50.759Z,48.38
2019-01-21T13:25:56.157Z,48.13
2019-01-21T13:31:44.485Z,46.57
2019-01-21T13:37:16.911Z,47.59
2019-01-21T13:42:47.112Z,48.06
2019-01-21T13:48:24.385Z,46.41
2019-01-21T13:54:00.006Z,45.67
2019-01-21T13:59:49.407Z,47.21
2019-01-21T14:05:31.163Z,49.63
2019-01-21T14:11:09.830Z,50.01
2019-01-21T14:17:05.458Z,50.91
2019-01-21T14:22:37.771Z,53.33
2019-01-21T14:28:14.671Z,54.51
2019-01-21T14:33:41.081Z,55.57
2019-01-21T14:39:06.980Z,56.69
2019-01-21T14:44:42.545Z,57.51
2019-01-21T14:50:07.475Z,57.40
2019-01-21T14:55:33.957Z,57.80
2019-01-21T15:01:02.346Z,57.00
2019-01-21T15:06:45.207Z,58.05
2019-01-21T15:12:20.825Z,57.03
2019-01-21T15:18:00.599Z,56.96
2019-01-21T15:23:24.248Z,58.44
2019-01-21T15:29:00.009Z,60.62
2019-01-21T15:34:40.724Z,61.25
2019-01-21T15:40:13.632Z,61.98
2019-01-21T15:45:56.947Z,65.82
2019-01-21T15:51:33.641Z,64.62
2019-01-21T15:57:08.967Z,66.88
2019-01-21T16:02:36.563Z,67.91
2019-01-21T16:13:57.003Z,69.04
2019-01-21T16:19:15.503Z,69.29
2019-01-21T16:24:46.116Z,68.65
2019-01-21T16:30:11.165Z,69.39
2019-01-21T16:35:57.092Z,70.24
2019-01-21T16:41:34.080Z,70.43
2019-01-21T16:46:51.563Z,70.78
2019-01-21T16:52:10.143Z,70.27
2019-01-21T16:57:27.834Z,71.34
2019-01-21T17:02:45.384Z,71.10
2019-01-21T17:08:03.018Z,71.06
2019-01-21T17:13:20.599Z,71.53
2019-01-21T17:18:37.998Z,71.20
2019-01-21T17:23:55.218Z,72.18
2019-01-21T17:29:12.536Z,73.27
2019-01-21T17:34:29.996Z,73.50
2019-01-21T17:39:48.370Z,73.38
2019-01-21T17:45:07.089Z,73.49
2019-01-21T17:50:25.287Z,73.92
2019-01-21T17:55:42.602Z,74.03
2019-01-21T18:01:00.204Z,74.37
2019-01-21T18:06:17.830Z,75.34
2019-01-21T18:11:41.313Z,75.63
2019-01-21T18:16:53.070Z,75.63
2019-01-21T18:22:10.452Z,76.33
2019-01-21T18:27:28.184Z,76.57
2019-01-21T18:32:53.746Z,77.14
2019-01-21T18:38:12.092Z,77.19
2019-01-21T18:43:30.958Z,77.14
2019-01-21T18:48:49.576Z,77.84
2019-01-21T18:54:08.258Z,78.03
2019-01-21T18:59:25.988Z,77.89
2019-01-21T19:04:43.786Z,78.42
2019-01-21T19:10:02.315Z,78.52
2019-01-21T19:15:21.114Z,78.18
2019-01-21T19:20:39.859Z,78.43
2019-01-21T19:25:57.928Z,78.06
2019-01-21T19:31:15.582Z,78.88
2019-01-21T19:36:34.068Z,79.06
2019-01-21T19:41:51.599Z,79.26
2019-01-21T19:47:09.610Z,79.47
2019-01-21T19:52:27.129Z,79.49
2019-01-21T19:57:44.729Z,79.33
2019-01-21T20:03:02.348Z,79.39
2019-01-21T20:08:20.440Z,79.48
2019-01-21T20:13:37.636Z,79.17
2019-01-21T20:18:55.757Z,79.09
2019-01-21T20:24:13.850Z,79.57
2019-01-21T20:29:31.988Z,79.56
2019-01-21T20:34:49.975Z,79.23
2019-01-21T20:40:08.253Z,79.28
2019-01-21T20:45:26.720Z,78.80
2019-01-21T20:50:44.413Z,78.63
2019-01-21T20:56:02.485Z,78.96
2019-01-21T21:01:22.689Z,79.81
2019-01-21T21:06:40.372Z,79.38
2019-01-21T21:11:58.027Z,80.09
2019-01-21T21:17:15.358Z,79.33
2019-01-21T21:22:33.378Z,79.48
2019-01-21T21:27:50.723Z,80.24
2019-01-21T21:33:07.949Z,79.90
2019-01-21T21:38:26.077Z,80.29
2019-01-21T21:43:43.322Z,80.07
2019-01-21T21:49:01.187Z,80.26
2019-01-21T21:54:18.704Z,80.58
2019-01-21T21:59:35.890Z,80.85
2019-01-21T22:04:53.592Z,80.03
2019-01-21T22:10:11.772Z,80.32
2019-01-21T22:15:29.482Z,80.04
2019-01-21T22:20:46.940Z,80.98
2019-01-21T22:26:05.223Z,80.46
2019-01-21T22:31:22.709Z,81.04
2019-01-21T22:36:40.292Z,80.73
2019-01-21T22:41:58.840Z,80.51
2019-01-21T22:47:17.093Z,80.56
2019-01-21T22:52:34.840Z,80.52
2019-01-21T22:57:52.706Z,80.30
2019-01-21T23:03:11.123Z,80.70
2019-01-21T23:08:31.528Z,80.36
2019-01-21T23:13:48.886Z,80.27
2019-01-21T23:19:06.252Z,80.66
2019-01-21T23:24:24.297Z,80.51
2019-01-21T23:29:43.080Z,80.70
2019-01-21T23:39:58.981Z,80.65
2019-01-21T23:45:16.322Z,80.40
2019-01-21T23:50:33.548Z,80.42
2019-01-21T23:55:51.078Z,80.29
